Time;durP1;ratioP1;P1;durP2;ratioP2;P2;SDS_P1;SDS_P2;PMS_P1;PMS_P2;Temp;Humidity;BMP_temperature;BMP_pressure;BME280_temperature;BME280_humidity;BME280_pressure;Samples;Min_cycle;Max_cycle;Signal;HPM_P1;HPM_P2
2022/10/16 00:01:27;;;;;;;8.10;2.78;;;12.40;99.90;;;;;;5058980;28;20162;-55
2022/10/16 00:03:54;;;;;;;7.55;3.17;;;12.40;99.90;;;;;;5062492;28;20040;-55
2022/10/16 00:06:21;;;;;;;7.95;2.80;;;12.40;99.90;;;;;;5063900;28;20040;-55
2022/10/16 00:08:47;;;;;;;4.38;2.75;;;12.40;99.90;;;;;;5060237;28;20072;-53
2022/10/16 00:11:16;;;;;;;7.43;2.88;;;12.40;99.90;;;;;;5063373;28;20036;-54
2022/10/16 00:13:44;;;;;;;6.15;3.05;;;12.40;99.90;;;;;;5062517;28;20459;-54
2022/10/16 00:16:12;;;;;;;5.78;2.90;;;12.40;99.90;;;;;;5056476;28;20463;-53
2022/10/16 00:18:37;;;;;;;5.00;2.80;;;12.40;99.90;;;;;;5060721;28;20162;-54
2022/10/16 00:21:13;;;;;;;6.57;2.90;;;12.40;99.90;;;;;;5060935;28;20071;-53
2022/10/16 00:23:39;;;;;;;8.75;3.63;;;12.40;99.90;;;;;;5057289;28;20032;-55
2022/10/16 00:26:07;;;;;;;7.32;3.10;;;12.40;99.90;;;;;;5060563;28;20041;-55
2022/10/16 00:28:34;;;;;;;6.60;3.03;;;12.40;99.90;;;;;;5058644;28;20057;-55
2022/10/16 00:31:03;;;;;;;6.18;2.88;;;12.40;99.90;;;;;;5058486;28;20053;-55
2022/10/16 00:33:29;;;;;;;7.10;2.70;;;12.40;99.90;;;;;;5058791;28;20053;-53
2022/10/16 00:35:58;;;;;;;5.15;2.97;;;12.40;99.90;;;;;;5060503;28;20393;-54
2022/10/16 00:38:24;;;;;;;6.05;3.08;;;12.40;99.90;;;;;;5061998;28;20036;-54
2022/10/16 00:40:49;;;;;;;5.78;2.83;;;12.40;99.90;;;;;;5064415;28;20094;-53
2022/10/16 00:43:46;;;;;;;9.88;3.20;;;12.30;99.90;;;;;;5068578;28;20048;-54
2022/10/16 00:46:24;;;;;;;12.50;3.28;;;12.30;99.90;;;;;;5061432;28;20048;-55
2022/10/16 00:49:01;;;;;;;6.72;2.97;;;12.30;99.90;;;;;;5065821;28;20414;-55
2022/10/16 00:51:34;;;;;;;12.73;2.73;;;12.30;99.90;;;;;;5068248;28;20024;-53
2022/10/16 00:54:03;;;;;;;5.47;2.80;;;12.20;99.90;;;;;;5066235;28;20568;-56
2022/10/16 00:56:29;;;;;;;5.43;2.75;;;12.20;99.90;;;;;;5063893;28;20474;-56
2022/10/16 00:58:55;;;;;;;7.53;3.05;;;12.30;99.90;;;;;;5062783;28;20193;-52
2022/10/16 01:01:21;;;;;;;7.28;2.75;;;12.30;99.90;;;;;;5065158;28;20123;-56
2022/10/16 01:03:46;;;;;;;5.90;3.35;;;12.30;99.90;;;;;;5064000;28;20036;-52
2022/10/16 01:06:24;;;;;;;4.97;2.80;;;12.20;99.90;;;;;;5062602;28;20051;-54
2022/10/16 01:09:15;;;;;;;7.32;3.35;;;12.30;99.90;;;;;;5060528;28;20033;-53
2022/10/16 01:11:59;;;;;;;6.07;3.15;;;12.30;99.90;;;;;;5064206;28;20040;-51
2022/10/16 01:14:45;;;;;;;3.35;2.50;;;12.20;99.90;;;;;;5063824;28;20044;-54
2022/10/16 01:17:18;;;;;;;6.72;2.88;;;12.30;99.90;;;;;;5061978;28;20095;-53
2022/10/16 01:20:26;;;;;;;6.85;3.13;;;12.20;99.90;;;;;;5063681;28;20051;-52
2022/10/16 01:22:57;;;;;;;;;;;12.20;99.90;;;;;;5063215;28;20456;-53
2022/10/16 01:25:33;;;;;;;4.75;2.75;;;12.20;99.90;;;;;;5062443;28;20374;-52
2022/10/16 01:28:01;;;;;;;5.07;3.03;;;12.30;99.90;;;;;;5059556;28;20040;-52
2022/10/16 01:30:30;;;;;;;7.47;2.80;;;12.20;99.90;;;;;;5058486;28;20044;-56
2022/10/16 01:32:59;;;;;;;6.65;2.83;;;12.20;99.90;;;;;;5063231;28;20036;-54
2022/10/16 01:35:33;;;;;;;4.78;3.08;;;12.20;99.90;;;;;;5064939;28;20045;-54
2022/10/16 01:38:09;;;;;;;4.63;2.95;;;12.20;99.90;;;;;;5058355;28;20036;-54
2022/10/16 01:40:37;;;;;;;6.05;3.53;;;12.10;99.90;;;;;;5065850;28;20048;-51
2022/10/16 01:43:08;;;;;;;8.38;3.08;;;12.10;99.90;;;;;;5064673;28;20063;-55
2022/10/16 01:45:35;;;;;;;7.80;3.30;;;12.10;99.90;;;;;;5059522;28;20119;-54
2022/10/16 01:48:03;;;;;;;4.03;3.30;;;12.10;99.90;;;;;;5064833;28;20048;-54
2022/10/16 01:50:32;;;;;;;6.47;3.00;;;12.10;99.90;;;;;;5063497;28;20129;-56
2022/10/16 01:52:59;;;;;;;8.05;3.38;;;12.10;99.90;;;;;;5063659;28;20067;-53
2022/10/16 01:55:30;;;;;;;7.72;2.92;;;12.10;99.90;;;;;;5059946;28;20097;-52
2022/10/16 01:57:57;;;;;;;8.88;3.15;;;12.10;99.90;;;;;;5060211;28;20453;-53
2022/10/16 02:00:24;;;;;;;5.70;2.60;;;12.10;99.90;;;;;;5060453;28;20041;-53
2022/10/16 02:02:53;;;;;;;6.67;2.50;;;12.10;99.90;;;;;;5061980;28;20054;-54
2022/10/16 02:05:25;;;;;;;4.32;2.72;;;12.20;99.90;;;;;;5062897;28;20044;-55
2022/10/16 02:07:50;;;;;;;3.10;2.60;;;12.20;99.90;;;;;;5064935;28;20153;-52
2022/10/16 02:10:17;;;;;;;4.88;2.80;;;12.10;99.90;;;;;;5062750;28;20045;-55
2022/10/16 02:13:16;;;;;;;6.60;3.05;;;12.20;99.90;;;;;;5066510;28;20040;-50
2022/10/16 02:15:41;;;;;;;4.55;2.63;;;12.20;99.90;;;;;;5046731;28;20486;-55
2022/10/16 02:18:09;;;;;;;5.72;2.63;;;12.20;99.90;;;;;;5057665;28;20040;-52
2022/10/16 02:20:50;;;;;;;7.45;2.70;;;12.20;99.90;;;;;;5044724;28;20055;-51
2022/10/16 02:23:39;;;;;;;6.78;2.92;;;12.20;99.90;;;;;;5057217;28;20051;-54
2022/10/16 02:26:08;;;;;;;5.38;3.05;;;12.20;99.90;;;;;;5054650;28;20049;-52
2022/10/16 02:28:41;;;;;;;5.40;2.33;;;12.20;99.90;;;;;;5036788;28;20479;-53
2022/10/16 02:31:11;;;;;;;7.88;3.03;;;12.30;99.90;;;;;;5043628;28;20059;-52
2022/10/16 02:33:39;;;;;;;3.85;2.30;;;12.30;99.90;;;;;;5057464;28;20048;-53
2022/10/16 02:36:05;;;;;;;5.80;2.60;;;12.40;99.90;;;;;;5041010;28;20056;-56
2022/10/16 02:38:31;;;;;;;3.92;2.75;;;12.40;99.90;;;;;;5058733;28;20056;-53
2022/10/16 02:40:56;;;;;;;6.43;2.63;;;12.40;99.90;;;;;;5058095;28;20036;-54
2022/10/16 02:43:22;;;;;;;4.50;2.72;;;12.40;99.90;;;;;;5058200;28;20042;-53
2022/10/16 02:45:48;;;;;;;7.22;3.20;;;12.50;99.90;;;;;;5060403;28;20056;-53
2022/10/16 02:48:14;;;;;;;6.18;3.00;;;12.50;99.90;;;;;;5056310;28;20057;-56
2022/10/16 02:50:40;;;;;;;4.35;2.70;;;12.60;99.90;;;;;;5058574;28;20045;-53
2022/10/16 02:53:05;;;;;;;6.78;3.50;;;12.60;99.90;;;;;;5064666;28;20048;-55
2022/10/16 02:55:31;;;;;;;3.83;2.65;;;12.60;99.90;;;;;;5061299;28;20086;-53
2022/10/16 02:57:57;;;;;;;5.63;2.72;;;12.60;99.90;;;;;;5062806;28;20037;-53
2022/10/16 03:00:22;;;;;;;8.68;3.03;;;12.70;99.90;;;;;;5059574;28;20506;-54
2022/10/16 03:02:48;;;;;;;5.50;2.90;;;12.70;99.90;;;;;;5061798;28;20036;-55
2022/10/16 03:05:14;;;;;;;4.00;2.80;;;12.70;99.90;;;;;;5061592;28;20032;-54
2022/10/16 03:07:39;;;;;;;7.20;3.22;;;12.70;99.90;;;;;;5059934;28;20044;-56
2022/10/16 03:10:06;;;;;;;5.22;2.95;;;12.80;99.90;;;;;;5056736;28;20068;-56
2022/10/16 03:12:32;;;;;;;6.13;2.85;;;12.80;99.90;;;;;;5060252;28;20063;-57
2022/10/16 03:14:58;;;;;;;6.25;2.72;;;12.80;99.90;;;;;;5061539;28;20475;-55
2022/10/16 03:17:24;;;;;;;4.88;2.60;;;12.90;99.90;;;;;;5060645;28;20190;-54
2022/10/16 03:19:49;;;;;;;4.95;3.10;;;12.90;99.90;;;;;;5064999;28;20040;-55
2022/10/16 03:22:15;;;;;;;5.20;2.90;;;12.90;99.90;;;;;;5060267;28;20547;-52
2022/10/16 03:24:41;;;;;;;5.43;3.35;;;12.80;99.90;;;;;;5062481;28;20041;-53
2022/10/16 03:27:06;;;;;;;7.63;3.63;;;12.80;99.90;;;;;;5058041;28;20048;-53
2022/10/16 03:29:32;;;;;;;7.20;3.10;;;12.90;99.90;;;;;;5059427;28;20186;-54
2022/10/16 03:31:59;;;;;;;4.35;3.22;;;12.90;99.90;;;;;;5058874;28;20044;-54
2022/10/16 03:34:25;;;;;;;4.32;3.17;;;12.90;99.90;;;;;;5063087;28;20052;-55
2022/10/16 03:36:51;;;;;;;6.07;3.30;;;12.80;99.90;;;;;;5059879;28;20040;-53
2022/10/16 03:39:16;;;;;;;6.95;3.65;;;12.90;99.90;;;;;;5062489;28;20040;-54
2022/10/16 03:41:42;;;;;;;5.68;3.53;;;12.90;99.90;;;;;;5063569;28;20036;-52
2022/10/16 03:44:08;;;;;;;4.78;3.67;;;12.90;99.90;;;;;;5064153;28;20406;-54
2022/10/16 03:46:33;;;;;;;4.90;3.28;;;12.80;99.90;;;;;;5062004;28;20048;-54
2022/10/16 03:48:59;;;;;;;8.10;3.58;;;12.80;99.90;;;;;;5064454;28;20059;-53
2022/10/16 03:51:24;;;;;;;7.45;3.53;;;12.80;99.90;;;;;;5062585;28;20068;-55
2022/10/16 03:53:50;;;;;;;4.68;3.58;;;12.90;99.90;;;;;;5062224;28;20478;-55
2022/10/16 03:56:16;;;;;;;6.45;3.65;;;12.80;99.90;;;;;;5061956;28;20036;-52
2022/10/16 03:58:41;;;;;;;6.32;3.75;;;12.80;99.90;;;;;;5063485;28;20821;-54
2022/10/16 04:01:07;;;;;;;6.60;4.05;;;12.70;99.90;;;;;;5060785;28;20098;-53
2022/10/16 04:03:33;;;;;;;4.78;3.53;;;12.80;99.90;;;;;;5064110;28;20028;-56
2022/10/16 04:05:58;;;;;;;5.70;3.55;;;12.70;99.90;;;;;;5063028;28;20089;-53
2022/10/16 04:08:24;;;;;;;7.20;3.50;;;12.70;99.90;;;;;;5063124;28;20444;-52
2022/10/16 04:10:50;;;;;;;4.53;3.63;;;12.70;99.90;;;;;;5062465;28;20131;-55
2022/10/16 04:13:15;;;;;;;6.45;3.60;;;12.70;99.90;;;;;;5058528;28;20076;-54
2022/10/16 04:15:41;;;;;;;8.60;4.07;;;12.70;99.90;;;;;;5056287;28;20094;-55
2022/10/16 04:18:07;;;;;;;5.40;3.40;;;12.70;99.90;;;;;;5061359;28;20037;-54
2022/10/16 04:20:33;;;;;;;4.78;3.28;;;12.60;99.90;;;;;;5061801;28;20487;-53
2022/10/16 04:22:59;;;;;;;5.30;3.60;;;12.70;99.90;;;;;;5058486;28;20076;-56
2022/10/16 04:25:25;;;;;;;4.13;3.35;;;12.60;99.90;;;;;;5064519;28;20079;-53
2022/10/16 04:27:53;;;;;;;4.75;3.45;;;12.60;99.90;;;;;;5060578;28;20043;-53
2022/10/16 04:30:19;;;;;;;3.58;3.28;;;12.60;99.90;;;;;;5064422;28;20105;-54
2022/10/16 04:32:51;;;;;;;4.82;3.75;;;12.60;99.90;;;;;;5059490;28;20581;-54
2022/10/16 04:35:18;;;;;;;4.35;3.53;;;12.60;99.90;;;;;;5060051;28;20120;-53
2022/10/16 04:37:44;;;;;;;7.20;4.03;;;12.60;99.90;;;;;;5061915;28;20044;-52
2022/10/16 04:40:10;;;;;;;5.95;3.65;;;12.60;99.90;;;;;;5059006;28;20344;-55
2022/10/16 04:42:36;;;;;;;4.05;3.47;;;12.60;99.90;;;;;;5059499;28;20043;-52
2022/10/16 04:45:01;;;;;;;4.05;3.30;;;12.60;99.90;;;;;;5062998;28;20033;-52
2022/10/16 04:47:27;;;;;;;4.28;3.88;;;12.60;99.90;;;;;;5061593;28;20543;-49
2022/10/16 04:49:52;;;;;;;4.65;3.20;;;12.50;99.90;;;;;;5063611;28;20494;-51
2022/10/16 04:52:18;;;;;;;4.80;3.50;;;12.50;99.90;;;;;;5060889;28;20060;-52
2022/10/16 04:54:45;;;;;;;4.30;3.30;;;12.50;99.90;;;;;;5060681;28;20057;-54
2022/10/16 04:57:11;;;;;;;5.65;3.75;;;12.50;99.90;;;;;;5058413;28;20118;-54
2022/10/16 04:59:36;;;;;;;6.28;3.78;;;12.50;99.90;;;;;;5058087;28;20084;-50
2022/10/16 05:02:02;;;;;;;5.43;3.70;;;12.50;99.90;;;;;;5055893;28;20069;-52
2022/10/16 05:04:28;;;;;;;5.38;3.50;;;12.50;99.90;;;;;;5059887;28;20041;-52
2022/10/16 05:06:53;;;;;;;4.47;3.20;;;12.40;99.90;;;;;;5061270;28;20048;-54
2022/10/16 05:09:19;;;;;;;7.03;3.65;;;12.50;99.90;;;;;;5059847;28;20044;-53
2022/10/16 05:11:45;;;;;;;5.38;3.70;;;12.50;99.90;;;;;;5060029;28;20075;-53
2022/10/16 05:14:10;;;;;;;7.65;4.00;;;12.50;99.90;;;;;;5059533;28;20475;-53
2022/10/16 05:16:36;;;;;;;4.03;3.38;;;12.50;99.90;;;;;;5061619;28;20384;-54
2022/10/16 05:19:01;;;;;;;4.97;3.85;;;12.40;99.90;;;;;;5057740;28;20037;-56
2022/10/16 05:21:27;;;;;;;4.15;3.03;;;12.50;99.90;;;;;;5061400;28;20059;-50
2022/10/16 05:23:54;;;;;;;3.67;3.35;;;12.40;99.90;;;;;;5059686;28;20075;-53
2022/10/16 05:26:20;;;;;;;3.90;3.30;;;12.40;99.90;;;;;;5062886;28;20072;-52
2022/10/16 05:28:46;;;;;;;4.07;3.33;;;12.30;99.90;;;;;;5061692;28;20056;-54
2022/10/16 05:31:11;;;;;;;7.07;3.40;;;12.30;99.90;;;;;;5063140;28;20037;-52
2022/10/16 05:33:37;;;;;;;5.80;3.60;;;12.30;99.90;;;;;;5064008;28;20064;-51
2022/10/16 05:36:07;;;;;;;5.55;3.42;;;12.20;99.90;;;;;;5062623;28;20040;-51
2022/10/16 05:38:34;;;;;;;5.90;3.17;;;12.20;99.90;;;;;;5064637;28;20044;-53
2022/10/16 05:41:00;;;;;;;7.57;3.33;;;12.20;99.90;;;;;;5062872;28;20422;-54
2022/10/16 05:43:27;;;;;;;4.95;3.63;;;12.20;99.90;;;;;;5063561;28;20033;-52
2022/10/16 05:45:58;;;;;;;3.88;3.40;;;12.20;99.90;;;;;;5063056;28;20509;-53
2022/10/16 05:48:24;;;;;;;4.88;3.63;;;12.20;99.90;;;;;;5061245;28;20139;-54
2022/10/16 05:51:01;;;;;;;4.68;3.78;;;12.30;99.90;;;;;;5064599;28;20544;-53
2022/10/16 05:53:28;;;;;;;4.85;3.30;;;12.30;99.90;;;;;;5064320;28;20071;-53
2022/10/16 05:55:57;;;;;;;6.10;3.10;;;12.30;99.90;;;;;;5065312;28;20395;-53
2022/10/16 05:58:24;;;;;;;6.85;3.47;;;12.20;99.90;;;;;;5062708;28;20425;-56
2022/10/16 06:01:01;;;;;;;6.82;3.45;;;12.20;99.90;;;;;;5063139;28;20040;-53
2022/10/16 06:03:27;;;;;;;4.05;3.03;;;12.20;99.90;;;;;;5064279;28;20414;-52
2022/10/16 06:05:53;;;;;;;4.18;3.30;;;12.20;99.90;;;;;;5063007;28;20043;-53
2022/10/16 06:08:20;;;;;;;6.00;3.50;;;12.20;99.90;;;;;;5058136;28;20052;-53
2022/10/16 06:10:48;;;;;;;5.55;3.08;;;12.20;99.90;;;;;;5063871;28;20385;-54
2022/10/16 06:13:14;;;;;;;4.07;3.08;;;12.20;99.90;;;;;;5065410;28;20076;-53
2022/10/16 06:15:41;;;;;;;6.57;3.58;;;12.20;99.90;;;;;;5061356;28;20043;-53
2022/10/16 06:18:08;;;;;;;6.50;3.15;;;12.10;99.90;;;;;;5063334;28;20040;-54
2022/10/16 06:20:34;;;;;;;3.53;3.20;;;12.10;99.90;;;;;;5060691;28;20186;-52
2022/10/16 06:23:00;;;;;;;5.20;3.30;;;12.20;99.90;;;;;;5062447;28;20131;-56
2022/10/16 06:25:26;;;;;;;4.35;3.50;;;12.10;99.90;;;;;;5061925;28;20060;-52
2022/10/16 06:27:51;;;;;;;4.10;3.30;;;12.20;99.90;;;;;;5057095;28;20047;-53
2022/10/16 06:30:17;;;;;;;4.97;3.00;;;12.30;99.90;;;;;;5061664;28;20043;-53
2022/10/16 06:32:42;;;;;;;9.15;3.15;;;12.20;99.90;;;;;;5059137;28;20484;-53
2022/10/16 06:35:08;;;;;;;6.50;3.05;;;12.20;99.90;;;;;;5058748;28;20546;-54
2022/10/16 06:37:34;;;;;;;5.95;3.17;;;12.30;99.90;;;;;;5064008;28;20136;-56
2022/10/16 06:40:00;;;;;;;4.93;3.47;;;12.30;99.90;;;;;;5065793;28;20044;-54
2022/10/16 06:42:25;;;;;;;3.83;3.10;;;12.40;99.90;;;;;;5060694;28;20509;-52
2022/10/16 06:44:51;;;;;;;7.32;3.30;;;12.40;99.90;;;;;;5062955;28;20119;-54
2022/10/16 06:47:17;;;;;;;5.13;2.90;;;12.30;99.90;;;;;;5062502;28;20032;-54
2022/10/16 06:49:42;;;;;;;7.95;3.55;;;12.40;99.90;;;;;;5061508;28;20769;-53
2022/10/16 06:52:08;;;;;;;6.07;3.08;;;12.40;99.90;;;;;;5063826;28;20045;-54
2022/10/16 06:54:34;;;;;;;3.65;3.35;;;12.40;99.90;;;;;;5064946;28;20036;-52
2022/10/16 06:57:00;;;;;;;5.40;3.28;;;12.50;99.90;;;;;;5059754;28;20044;-53
2022/10/16 06:59:26;;;;;;;6.15;3.72;;;12.40;99.90;;;;;;5063207;28;20083;-55
2022/10/16 07:01:52;;;;;;;5.43;3.22;;;12.50;99.90;;;;;;5058782;28;20123;-53
2022/10/16 07:04:17;;;;;;;6.50;3.00;;;12.50;99.90;;;;;;5059652;28;20033;-53
2022/10/16 07:06:43;;;;;;;5.72;2.97;;;12.60;99.90;;;;;;5065517;28;20040;-54
2022/10/16 07:09:10;;;;;;;5.72;3.17;;;12.70;99.90;;;;;;5058081;28;20048;-52
2022/10/16 07:11:37;;;;;;;3.80;2.83;;;12.80;99.90;;;;;;5065497;28;20032;-54
2022/10/16 07:14:04;;;;;;;4.20;3.00;;;12.90;99.90;;;;;;5055367;28;20679;-52
2022/10/16 07:16:32;;;;;;;5.82;2.78;;;13.20;99.90;;;;;;5061555;28;20037;-54
2022/10/16 07:19:00;;;;;;;4.30;2.70;;;13.20;99.90;;;;;;5061105;28;20127;-53
2022/10/16 07:21:28;;;;;;;7.07;2.90;;;13.30;99.90;;;;;;5060426;28;20037;-55
2022/10/16 07:23:59;;;;;;;6.43;2.70;;;13.40;99.90;;;;;;5064772;28;20055;-55
2022/10/16 07:26:26;;;;;;;6.03;3.40;;;13.40;99.90;;;;;;5058063;28;20045;-55
2022/10/16 07:28:52;;;;;;;8.90;2.67;;;13.40;99.90;;;;;;5062547;28;20414;-56
2022/10/16 07:31:19;;;;;;;3.70;2.50;;;13.40;99.90;;;;;;5061213;28;20562;-53
2022/10/16 07:33:47;;;;;;;9.73;3.05;;;13.40;99.90;;;;;;5060202;28;20051;-51
2022/10/16 07:36:14;;;;;;;5.93;3.05;;;13.50;99.90;;;;;;5064532;28;20138;-54
2022/10/16 07:38:39;;;;;;;4.07;2.72;;;13.50;99.90;;;;;;5060167;28;21058;-54
2022/10/16 07:41:09;;;;;;;3.88;2.63;;;13.60;99.90;;;;;;5065257;28;20047;-49
2022/10/16 07:43:34;;;;;;;4.45;2.58;;;13.60;99.90;;;;;;5061066;28;20182;-53
2022/10/16 07:46:00;;;;;;;6.13;2.72;;;13.70;99.90;;;;;;5058281;28;20124;-53
2022/10/16 07:48:31;;;;;;;5.78;2.80;;;13.80;99.90;;;;;;5063536;28;20052;-55
2022/10/16 07:51:02;;;;;;;4.22;2.30;;;13.90;99.90;;;;;;5058470;28;20071;-54
2022/10/16 07:53:27;;;;;;;4.00;2.38;;;13.90;99.90;;;;;;5063370;28;21254;-54
2022/10/16 07:56:01;;;;;;;5.45;1.95;;;13.90;99.90;;;;;;5059956;28;20131;-54
2022/10/16 07:58:27;;;;;;;5.20;2.20;;;14.00;99.90;;;;;;5062396;28;20036;-58
2022/10/16 08:00:53;;;;;;;5.53;2.13;;;13.90;99.90;;;;;;5060371;28;20047;-54
2022/10/16 08:03:19;;;;;;;4.72;2.08;;;14.00;99.90;;;;;;5065020;28;20040;-53
2022/10/16 08:05:45;;;;;;;3.67;2.28;;;14.00;99.90;;;;;;5059801;28;20048;-55
2022/10/16 08:08:14;;;;;;;5.30;2.30;;;14.10;99.90;;;;;;5062091;28;20731;-54
2022/10/16 08:10:40;;;;;;;4.45;2.25;;;14.10;99.90;;;;;;5059847;28;20149;-55
2022/10/16 08:13:06;;;;;;;5.00;2.20;;;14.00;99.90;;;;;;5063194;28;20041;-54
2022/10/16 08:15:31;;;;;;;5.40;2.50;;;14.10;99.90;;;;;;5064439;28;20041;-53
2022/10/16 08:17:59;;;;;;;3.90;2.42;;;14.20;99.90;;;;;;5061840;28;20048;-56
2022/10/16 08:20:26;;;;;;;2.95;1.90;;;14.30;99.90;;;;;;5059502;28;20041;-54
2022/10/16 08:22:52;;;;;;;4.07;2.25;;;14.40;99.90;;;;;;5055542;28;20084;-54
2022/10/16 08:25:17;;;;;;;2.63;2.08;;;14.50;99.90;;;;;;5063540;28;20087;-54
2022/10/16 08:27:44;;;;;;;4.68;2.10;;;14.50;99.90;;;;;;5067189;28;20048;-55
2022/10/16 08:30:10;;;;;;;8.05;2.40;;;14.60;99.90;;;;;;5068280;28;20498;-56
2022/10/16 08:32:36;;;;;;;6.18;1.92;;;14.60;99.90;;;;;;5065512;28;20032;-55
2022/10/16 08:35:02;;;;;;;3.08;2.10;;;14.60;99.90;;;;;;5069303;28;20419;-56
2022/10/16 08:37:32;;;;;;;4.38;2.38;;;14.80;99.90;;;;;;5066374;28;20466;-54
2022/10/16 08:39:58;;;;;;;3.67;2.25;;;14.80;99.90;;;;;;5072741;28;20470;-54
2022/10/16 08:42:52;;;;;;;4.10;2.17;;;14.70;99.90;;;;;;5062034;28;20048;-56
2022/10/16 08:45:32;;;;;;;5.50;2.30;;;14.70;99.90;;;;;;5063843;28;20052;-55
2022/10/16 08:48:23;;;;;;;2.30;2.10;;;14.80;99.90;;;;;;5075056;28;20076;-52
2022/10/16 08:50:51;;;;;;;4.97;1.90;;;15.00;99.90;;;;;;5057898;28;20055;-55
2022/10/16 08:53:30;;;;;;;5.38;1.98;;;15.00;99.90;;;;;;5077729;28;20390;-54
2022/10/16 08:55:58;;;;;;;3.90;1.70;;;15.00;99.90;;;;;;5065876;28;20055;-54
2022/10/16 08:58:28;;;;;;;3.05;1.67;;;15.10;99.90;;;;;;5065641;28;20047;-53
2022/10/16 09:00:54;;;;;;;4.38;2.00;;;;;;;;;;5068437;28;20122;-53
2022/10/16 09:03:29;;;;;;;3.70;1.52;;;15.20;99.90;;;;;;5072245;28;20245;-55
2022/10/16 09:06:19;;;;;;;3.92;1.63;;;15.10;99.90;;;;;;5066275;28;20033;-54
2022/10/16 09:09:05;;;;;;;4.78;1.40;;;15.20;99.90;;;;;;5072637;28;20101;-56
2022/10/16 09:11:45;;;;;;;5.43;1.52;;;15.30;99.90;;;;;;5047932;28;20094;-55
2022/10/16 09:14:52;;;;;;;3.45;1.60;;;15.40;99.90;;;;;;5068653;28;20036;-52
2022/10/16 09:17:32;;;;;;;4.50;1.70;;;15.50;99.90;;;;;;5066393;28;20045;-56
2022/10/16 09:20:27;;;;;;;4.35;1.65;;;15.50;99.90;;;;;;5068201;28;20037;-54
2022/10/16 09:23:12;;;;;;;4.03;1.50;;;15.50;99.90;;;;;;5071699;28;20055;-53
2022/10/16 09:25:40;;;;;;;4.75;1.40;;;15.60;99.90;;;;;;5066690;28;20044;-56
2022/10/16 09:28:08;;;;;;;4.72;1.75;;;15.80;99.90;;;;;;5064865;28;20552;-54
2022/10/16 09:30:34;;;;;;;;;;;15.80;99.90;;;;;;5054379;28;20048;-55
2022/10/16 09:33:00;;;;;;;4.53;1.40;;;15.80;99.90;;;;;;5045471;28;19927;-53
2022/10/16 09:35:43;;;;;;;4.85;1.67;;;15.90;99.90;;;;;;5066663;28;20051;-55
2022/10/16 09:38:22;;;;;;;4.28;1.70;;;15.90;99.90;;;;;;5063649;28;20036;-54
2022/10/16 09:40:48;;;;;;;3.95;1.65;;;16.00;99.90;;;;;;5030016;28;20049;-54
2022/10/16 09:43:14;;;;;;;5.00;1.55;;;16.10;99.90;;;;;;5060147;28;20076;-55
2022/10/16 09:45:40;;;;;;;4.68;1.48;;;16.10;99.90;;;;;;5065212;28;20127;-55
2022/10/16 09:48:12;;;;;;;6.15;1.90;;;16.20;99.90;;;;;;5064814;28;20160;-54
2022/10/16 09:50:38;;;;;;;7.15;1.80;;;16.20;99.90;;;;;;5060972;28;20037;-54
2022/10/16 09:53:14;;;;;;;8.45;1.48;;;16.30;99.90;;;;;;5067647;28;20045;-54
2022/10/16 09:55:53;;;;;;;5.03;1.20;;;16.30;99.90;;;;;;5070472;28;20040;-55
2022/10/16 09:58:23;;;;;;;5.20;1.10;;;16.40;99.90;;;;;;5067358;28;20544;-56
2022/10/16 10:00:52;;;;;;;4.63;1.40;;;16.50;99.90;;;;;;5062657;28;20041;-54
2022/10/16 10:03:34;;;;;;;6.32;1.48;;;16.40;99.90;;;;;;5069127;28;20055;-55
2022/10/16 10:06:17;;;;;;;4.65;1.40;;;16.50;99.90;;;;;;5060615;28;20045;-54
2022/10/16 10:08:54;;;;;;;7.90;1.65;;;16.50;99.90;;;;;;5043818;28;20076;-54
2022/10/16 10:11:40;;;;;;;6.28;1.20;;;16.50;99.90;;;;;;5062707;28;20024;-55
2022/10/16 10:14:36;;;;;;;4.95;1.50;;;16.70;99.90;;;;;;5065886;28;20067;-55
2022/10/16 10:17:15;;;;;;;8.87;2.30;;;16.70;99.90;;;;;;5057971;28;20052;-55
2022/10/16 10:19:48;;;;;;;6.60;1.70;;;16.70;99.90;;;;;;5060879;28;20294;-56
2022/10/16 10:22:29;;;;;;;6.18;1.30;;;16.70;99.90;;;;;;5068618;28;20078;-55
2022/10/16 10:25:13;;;;;;;7.78;1.58;;;16.80;99.90;;;;;;5066252;28;20048;-54
2022/10/16 10:27:57;;;;;;;7.07;1.73;;;16.90;99.90;;;;;;5065224;28;20426;-56
2022/10/16 10:31:00;;;;;;;10.52;1.98;;;17.00;99.90;;;;;;5062353;28;20440;-53
2022/10/16 10:33:44;;;;;;;5.85;2.22;;;17.00;99.90;;;;;;5061703;28;20052;-52
2022/10/16 10:36:25;;;;;;;8.85;1.63;;;17.10;99.90;;;;;;5060222;28;20052;-56
2022/10/16 10:39:03;;;;;;;7.38;2.22;;;17.10;99.90;;;;;;5059914;28;20033;-55
2022/10/16 10:41:29;;;;;;;6.40;1.73;;;17.20;99.90;;;;;;5066402;28;20418;-55
2022/10/16 10:44:04;;;;;;;9.13;1.75;;;17.20;99.90;;;;;;5069382;28;20040;-56
2022/10/16 10:46:46;;;;;;;7.95;1.80;;;17.40;99.90;;;;;;5063117;28;20063;-57
2022/10/16 10:49:39;;;;;;;7.22;1.65;;;17.60;99.90;;;;;;5056831;28;20430;-55
2022/10/16 10:52:33;;;;;;;6.13;1.60;;;17.70;99.90;;;;;;5056827;28;20036;-55
2022/10/16 10:55:33;;;;;;;7.90;1.90;;;17.90;99.90;;;;;;5058207;28;20052;-57
2022/10/16 10:58:11;;;;;;;10.18;1.95;;;17.80;99.90;;;;;;5055985;28;20574;-56
2022/10/16 11:01:08;;;;;;;7.55;1.80;;;17.90;99.90;;;;;;5059046;28;20053;-56
2022/10/16 11:03:45;;;;;;;6.47;1.75;;;18.10;99.90;;;;;;5060580;28;20131;-56
2022/10/16 11:06:17;;;;;;;9.15;1.52;;;18.10;99.90;;;;;;5058489;28;20490;-60
2022/10/16 11:08:58;;;;;;;8.10;1.95;;;18.30;99.90;;;;;;5067061;28;20048;-55
2022/10/16 11:11:38;;;;;;;8.90;2.10;;;18.40;99.90;;;;;;5068795;28;20086;-55
2022/10/16 11:14:21;;;;;;;9.02;1.67;;;18.40;99.90;;;;;;5059393;28;20098;-55
2022/10/16 11:16:49;;;;;;;7.03;1.60;;;18.30;99.90;;;;;;5064638;28;20080;-55
2022/10/16 11:19:39;;;;;;;8.70;2.28;;;18.10;99.90;;;;;;5071969;28;20044;-56
2022/10/16 11:22:09;;;;;;;4.15;1.27;;;17.90;99.90;;;;;;5070741;28;20054;-56
2022/10/16 11:24:45;;;;;;;6.45;1.80;;;18.10;99.90;;;;;;5072428;28;20051;-56
2022/10/16 11:27:16;;;;;;;8.70;2.55;;;18.20;99.90;;;;;;5065281;28;20071;-54
2022/10/16 11:29:53;;;;;;;5.10;1.65;;;18.30;99.90;;;;;;5067573;28;20049;-55
2022/10/16 11:32:25;;;;;;;12.32;1.90;;;18.40;99.90;;;;;;5068798;28;20036;-56
2022/10/16 11:34:57;;;;;;;11.15;2.50;;;18.20;99.90;;;;;;5071867;28;20407;-56
2022/10/16 11:37:36;;;;;;;7.10;1.77;;;18.10;99.90;;;;;;5069586;28;20032;-55
2022/10/16 11:40:35;;;;;;;7.25;1.60;;;18.10;99.90;;;;;;5072358;28;20136;-55
2022/10/16 11:43:21;;;;;;;6.05;2.13;;;18.20;99.90;;;;;;5074787;28;20394;-55
2022/10/16 11:45:54;;;;;;;7.72;1.83;;;18.40;99.90;;;;;;5072183;28;20383;-54
2022/10/16 11:48:38;;;;;;;11.77;2.40;;;18.70;99.90;;;;;;5071153;28;20060;-55
2022/10/16 11:51:20;;;;;;;6.53;1.73;;;18.60;99.90;;;;;;5058971;28;20041;-56
2022/10/16 11:54:23;;;;;;;6.68;1.63;;;18.60;99.90;;;;;;5065237;28;20044;-56
2022/10/16 11:56:54;;;;;;;5.57;1.42;;;18.60;99.90;;;;;;5071345;28;20428;-56
2022/10/16 11:59:35;;;;;;;5.47;1.48;;;18.70;99.90;;;;;;5072033;28;20045;-55
2022/10/16 12:02:20;;;;;;;7.03;1.88;;;19.00;99.90;;;;;;5071707;28;20530;-56
2022/10/16 12:04:51;;;;;;;8.70;1.73;;;19.20;99.90;;;;;;5071470;28;20040;-55
2022/10/16 12:07:27;;;;;;;8.13;1.85;;;19.20;99.90;;;;;;5060999;28;20040;-56
2022/10/16 12:09:53;;;;;;;8.82;1.70;;;19.10;99.90;;;;;;5071841;28;20044;-56
2022/10/16 12:12:35;;;;;;;9.18;1.95;;;19.00;99.90;;;;;;5072266;28;20445;-56
2022/10/16 12:15:22;;;;;;;7.88;1.70;;;18.70;99.90;;;;;;5071963;28;20131;-56
2022/10/16 12:17:48;;;;;;;8.27;2.03;;;18.70;99.90;;;;;;5071251;28;20053;-56
2022/10/16 12:20:17;;;;;;;7.43;1.65;;;18.60;99.90;;;;;;5071623;28;20032;-56
2022/10/16 12:22:54;;;;;;;7.95;1.90;;;18.60;99.90;;;;;;5069459;28;20094;-56
2022/10/16 12:25:27;;;;;;;9.18;2.03;;;18.40;99.90;;;;;;5071947;28;20131;-56
2022/10/16 12:28:05;;;;;;;9.10;1.85;;;18.40;99.90;;;;;;5070370;28;20163;-55
2022/10/16 12:30:36;;;;;;;5.75;1.80;;;18.20;99.90;;;;;;5071037;28;20067;-56
2022/10/16 12:33:05;;;;;;;8.35;1.65;;;18.20;99.90;;;;;;5071916;28;20336;-55
2022/10/16 12:35:34;;;;;;;7.22;1.65;;;18.20;99.90;;;;;;5075329;28;20036;-55
2022/10/16 12:38:27;;;;;;;7.95;1.67;;;18.00;99.90;;;;;;5073137;28;20039;-55
2022/10/16 12:41:00;;;;;;;9.20;1.90;;;17.90;99.90;;;;;;5073722;28;20056;-53
2022/10/16 12:43:42;;;;;;;7.05;1.80;;;17.90;99.90;;;;;;5066820;28;20554;-55
2022/10/16 12:46:10;;;;;;;7.20;1.90;;;17.80;99.90;;;;;;5061957;28;20040;-55
2022/10/16 12:48:38;;;;;;;8.95;1.80;;;17.70;99.90;;;;;;5075383;28;20133;-54
2022/10/16 12:51:33;;;;;;;6.13;1.60;;;17.70;99.90;;;;;;5075083;28;20060;-56
2022/10/16 12:54:03;;;;;;;8.63;1.92;;;17.90;99.90;;;;;;5071344;28;20049;-55
2022/10/16 12:56:46;;;;;;;8.35;1.80;;;17.70;99.90;;;;;;5075407;28;20398;-55
2022/10/16 12:59:29;;;;;;;7.75;1.60;;;17.60;99.90;;;;;;5075188;28;20068;-56
2022/10/16 13:02:29;;;;;;;7.68;1.48;;;17.60;99.90;;;;;;5075432;28;20079;-55
2022/10/16 13:05:26;;;;;;;6.45;1.40;;;17.50;99.90;;;;;;5075167;28;20084;-56
2022/10/16 13:08:10;;;;;;;9.23;1.70;;;17.60;99.90;;;;;;5071351;28;20064;-55
2022/10/16 13:10:41;;;;;;;7.47;2.00;;;17.80;99.90;;;;;;5073431;28;20047;-56